Time;durP1;ratioP1;P1;durP2;ratioP2;P2;SDS_P1;SDS_P2;PMS_P1;PMS_P2;Temp;Humidity;BMP_temperature;BMP_pressure;BME280_temperature;BME280_humidity;BME280_pressure;Samples;Min_cycle;Max_cycle;Signal;HPM_P1;HPM_P2
2022/09/06 00:00:26;;;;;;;4.18;2.47;;;12.50;91.40;;;;;;9685652;30;20050;-84
2022/09/06 00:05:28;;;;;;;5.18;2.30;;;12.30;91.90;;;;;;9683371;30;20030;-83
2022/09/06 00:10:30;;;;;;;3.65;2.15;;;12.10;92.50;;;;;;9686267;30;20033;-83
2022/09/06 00:15:30;;;;;;;3.88;2.13;;;12.00;92.10;;;;;;9684195;30;20055;-83
2022/09/06 00:20:33;;;;;;;5.00;2.40;;;11.90;92.70;;;;;;9684665;30;20042;-84
2022/09/06 00:25:34;;;;;;;3.42;2.00;;;11.70;93.00;;;;;;9685304;30;20554;-85
2022/09/06 00:30:34;;;;;;;3.97;1.75;;;11.50;93.50;;;;;;9685294;30;20111;-84
2022/09/06 00:35:35;;;;;;;5.22;2.10;;;11.30;94.10;;;;;;9685540;30;20029;-83
2022/09/06 00:40:35;;;;;;;3.40;1.70;;;11.10;94.70;;;;;;9685350;30;20124;-84
2022/09/06 00:45:36;;;;;;;3.80;2.13;;;11.10;94.70;;;;;;9680867;30;20030;-86
2022/09/06 00:50:37;;;;;;;4.43;1.70;;;11.10;94.60;;;;;;9682684;30;20066;-87
2022/09/06 00:55:40;;;;;;;3.22;1.90;;;11.20;94.70;;;;;;9685312;30;20111;-84
2022/09/06 01:00:41;;;;;;;3.45;1.58;;;11.30;94.30;;;;;;9682729;30;20066;-85
2022/09/06 01:05:45;;;;;;;3.50;1.92;;;11.30;94.30;;;;;;9682198;30;20041;-86
2022/09/06 01:10:54;;;;;;;4.43;1.83;;;11.40;93.90;;;;;;9681338;30;20546;-84
2022/09/06 01:16:29;;;;;;;5.03;2.10;;;11.40;93.60;;;;;;9682961;30;20065;-84
2022/09/06 01:21:52;;;;;;;4.22;1.90;;;11.50;93.10;;;;;;9681977;30;20075;-83
2022/09/06 01:27:46;;;;;;;3.30;2.10;;;11.50;92.70;;;;;;9679727;30;20042;-87
2022/09/06 01:33:02;;;;;;;3.40;1.83;;;11.60;92.60;;;;;;9608858;30;20077;-83
2022/09/06 01:38:04;;;;;;;3.97;1.90;;;11.60;92.80;;;;;;9682702;30;20053;-88
2022/09/06 01:43:09;;;;;;;4.07;1.70;;;11.60;92.60;;;;;;9684349;30;20064;-83
2022/09/06 01:48:46;;;;;;;3.72;1.55;;;11.60;92.60;;;;;;9685406;30;20037;-82
2022/09/06 01:54:04;;;;;;;3.67;2.28;;;11.50;92.30;;;;;;9680220;30;20091;-86
2022/09/06 01:59:22;;;;;;;4.00;1.85;;;11.50;92.40;;;;;;9683979;30;20038;-83
2022/09/06 02:04:35;;;;;;;5.63;2.30;;;11.50;92.50;;;;;;9682170;30;20042;-84
2022/09/06 02:09:42;;;;;;;2.97;1.75;;;11.50;92.30;;;;;;9666851;30;20046;-83
2022/09/06 02:14:47;;;;;;;5.68;2.05;;;11.50;92.40;;;;;;9683564;30;20037;-81
2022/09/06 02:19:53;;;;;;;3.95;2.05;;;11.50;92.30;;;;;;9679776;30;20683;-83
2022/09/06 02:24:57;;;;;;;3.08;1.92;;;11.50;92.40;;;;;;9683721;30;20046;-83
2022/09/06 02:29:58;;;;;;;5.45;1.75;;;11.40;92.70;;;;;;9680732;30;20069;-83
2022/09/06 02:35:04;;;;;;;3.47;1.50;;;11.40;92.60;;;;;;9665743;30;20042;-84
2022/09/06 02:40:06;;;;;;;8.53;2.13;;;11.40;92.70;;;;;;9680535;30;20053;-85
2022/09/06 02:45:07;;;;;;;2.88;1.88;;;11.40;92.80;;;;;;9678991;30;20120;-83
2022/09/06 02:50:08;;;;;;;5.00;2.10;;;11.40;92.70;;;;;;9680918;30;20085;-83
2022/09/06 02:55:10;;;;;;;3.72;1.83;;;11.40;92.80;;;;;;9681923;30;20763;-83
2022/09/06 03:00:11;;;;;;;3.72;1.67;;;11.30;92.70;;;;;;9687156;30;20060;-83
2022/09/06 03:05:12;;;;;;;6.00;1.70;;;11.40;92.70;;;;;;9685870;30;20042;-86
2022/09/06 03:10:13;;;;;;;2.45;1.67;;;11.30;92.70;;;;;;9689720;30;20684;-83
2022/09/06 03:15:15;;;;;;;4.05;1.85;;;11.30;92.90;;;;;;9688467;30;20095;-83
2022/09/06 03:20:15;;;;;;;4.00;1.80;;;11.30;93.00;;;;;;9692443;30;20057;-87
2022/09/06 03:25:16;;;;;;;4.22;1.70;;;11.30;93.20;;;;;;9687840;30;20049;-84
2022/09/06 03:30:17;;;;;;;5.97;2.10;;;11.20;93.20;;;;;;9688164;30;20034;-84
2022/09/06 03:35:17;;;;;;;3.78;1.98;;;11.20;93.40;;;;;;9690483;30;20038;-85
2022/09/06 03:40:18;;;;;;;3.30;1.90;;;11.10;93.70;;;;;;9685962;30;20050;-85
2022/09/06 03:45:19;;;;;;;2.72;1.83;;;11.10;93.70;;;;;;9691814;30;20136;-85
2022/09/06 03:50:19;;;;;;;6.47;2.07;;;11.10;93.80;;;;;;9694625;30;20038;-85
2022/09/06 03:55:20;;;;;;;6.53;1.85;;;11.10;93.70;;;;;;9689897;30;20058;-85
2022/09/06 04:00:20;;;;;;;3.88;1.63;;;11.10;93.80;;;;;;9687719;30;20119;-84
2022/09/06 04:05:21;;;;;;;2.92;1.88;;;11.10;93.90;;;;;;9682478;30;20056;-86
2022/09/06 04:10:22;;;;;;;4.75;1.80;;;11.10;93.90;;;;;;9678334;30;20041;-84
2022/09/06 04:15:23;;;;;;;4.68;2.10;;;11.10;93.90;;;;;;9672203;30;20439;-84
2022/09/06 04:20:23;;;;;;;4.47;2.00;;;11.10;93.70;;;;;;9689720;30;20053;-85
2022/09/06 04:25:24;;;;;;;4.65;1.90;;;11.10;93.90;;;;;;9688398;30;20050;-84
2022/09/06 04:30:24;;;;;;;3.00;1.90;;;11.20;93.90;;;;;;9682453;30;20042;-84
2022/09/06 04:35:25;;;;;;;5.05;2.22;;;11.20;94.30;;;;;;9672296;30;20060;-84
2022/09/06 04:40:26;;;;;;;3.75;2.10;;;11.20;94.50;;;;;;9697904;30;20050;-85
2022/09/06 04:45:26;;;;;;;2.83;1.80;;;11.10;95.30;;;;;;9709877;30;20034;-85
2022/09/06 04:50:27;;;;;;;6.10;2.40;;;10.90;96.30;;;;;;9705647;30;20038;-85
2022/09/06 04:55:30;;;;;;;3.70;2.10;;;10.70;97.50;;;;;;9692556;30;20066;-86
2022/09/06 05:00:33;;;;;;;4.17;1.73;;;10.60;98.70;;;;;;9674827;30;20510;-84
2022/09/06 05:05:33;;;;;;;3.28;1.63;;;10.60;99.70;;;;;;9703069;30;20045;-85
2022/09/06 05:10:34;;;;;;;4.27;2.27;;;10.70;99.90;;;;;;9714342;30;20049;-83
2022/09/06 05:15:34;;;;;;;3.88;2.20;;;10.80;99.90;;;;;;9681041;30;20049;-84
2022/09/06 05:20:35;;;;;;;5.82;2.40;;;11.10;99.90;;;;;;9683100;30;20125;-84
2022/09/06 05:25:36;;;;;;;4.90;2.47;;;11.30;98.80;;;;;;9690134;30;20059;-84
2022/09/06 05:30:36;;;;;;;4.18;2.47;;;11.50;97.60;;;;;;9682888;30;20034;-83
2022/09/06 05:35:37;;;;;;;7.53;3.00;;;11.70;96.20;;;;;;9703022;30;20654;-85
2022/09/06 05:40:38;;;;;;;6.05;2.40;;;11.90;95.10;;;;;;9705487;30;20049;-86
2022/09/06 05:45:39;;;;;;;7.05;3.03;;;12.10;94.70;;;;;;9681246;30;20104;-84
2022/09/06 05:50:39;;;;;;;6.47;2.33;;;12.20;94.70;;;;;;9678515;30;20038;-85
2022/09/06 05:55:40;;;;;;;9.18;2.65;;;12.40;94.40;;;;;;9680078;30;20112;-84
2022/09/06 06:00:40;;;;;;;5.93;2.55;;;12.60;94.50;;;;;;9689588;30;20051;-84
2022/09/06 06:05:46;;;;;;;6.20;2.92;;;12.70;94.10;;;;;;9687734;30;20433;-85
2022/09/06 06:10:46;;;;;;;5.72;2.72;;;12.90;94.10;;;;;;9689149;30;20030;-84
2022/09/06 06:15:47;;;;;;;6.53;2.83;;;13.10;94.50;;;;;;9675685;30;20041;-84
2022/09/06 06:20:48;;;;;;;6.03;2.85;;;13.30;93.70;;;;;;9694481;30;20049;-84
2022/09/06 06:25:48;;;;;;;7.20;2.90;;;13.50;93.70;;;;;;9702311;30;20099;-84
2022/09/06 06:30:49;;;;;;;6.25;2.65;;;13.70;92.90;;;;;;9676311;30;20034;-85
2022/09/06 06:35:59;;;;;;;8.90;3.50;;;14.00;92.50;;;;;;9681325;30;20046;-84
2022/09/06 06:41:00;;;;;;;6.78;3.15;;;14.20;91.40;;;;;;9693726;30;20048;-83
2022/09/06 06:46:06;;;;;;;7.75;2.60;;;14.50;91.80;;;;;;9683348;30;20116;-85
2022/09/06 06:51:08;;;;;;;7.15;2.95;;;14.70;91.90;;;;;;9686925;30;20084;-85
2022/09/06 06:56:16;;;;;;;6.40;2.85;;;14.90;90.70;;;;;;9691473;30;20050;-84
2022/09/06 07:01:19;;;;;;;5.55;2.60;;;15.20;90.40;;;;;;9684854;30;20049;-85
2022/09/06 07:06:21;;;;;;;7.53;3.17;;;15.50;89.60;;;;;;9684794;30;20546;-85
2022/09/06 07:11:21;;;;;;;6.97;2.35;;;15.90;88.90;;;;;;9677115;30;20121;-85
2022/09/06 07:16:23;;;;;;;3.17;2.45;;;16.30;87.60;;;;;;9692501;30;20042;-85
2022/09/06 07:21:27;;;;;;;5.32;2.22;;;16.70;85.00;;;;;;9696536;30;20084;-85
2022/09/06 07:26:29;;;;;;;5.43;2.40;;;17.20;84.50;;;;;;9680853;30;20088;-85
2022/09/06 07:31:31;;;;;;;4.38;2.40;;;17.40;85.30;;;;;;9691078;30;20109;-85
2022/09/06 07:36:31;;;;;;;7.13;2.53;;;17.70;83.80;;;;;;9686966;30;20038;-84
2022/09/06 07:41:32;;;;;;;7.57;2.15;;;18.10;80.30;;;;;;9679252;30;20053;-84
2022/09/06 07:46:33;;;;;;;5.28;2.40;;;17.90;77.60;;;;;;9687966;30;20125;-84
2022/09/06 07:51:34;;;;;;;5.47;2.40;;;17.70;78.60;;;;;;9706008;30;20050;-85
2022/09/06 07:56:34;;;;;;;6.55;2.63;;;17.70;78.90;;;;;;9696416;30;20065;-85
2022/09/06 08:01:37;;;;;;;5.07;2.28;;;17.70;81.30;;;;;;9682470;30;20053;-85
2022/09/06 08:06:43;;;;;;;6.53;2.80;;;17.80;80.00;;;;;;9689765;30;20045;-85
2022/09/06 08:11:43;;;;;;;5.43;2.50;;;18.00;79.50;;;;;;9692039;30;20096;-84
2022/09/06 08:16:44;;;;;;;6.63;2.70;;;18.20;80.50;;;;;;9687853;30;20105;-85
2022/09/06 08:21:44;;;;;;;6.90;3.00;;;18.50;78.80;;;;;;9678077;30;20792;-84
2022/09/06 08:26:45;;;;;;;6.05;2.50;;;18.70;76.80;;;;;;9704340;30;20490;-86
2022/09/06 08:31:46;;;;;;;4.05;2.33;;;18.50;75.10;;;;;;9695123;30;20034;-84
2022/09/06 08:36:46;;;;;;;5.82;2.63;;;18.30;73.90;;;;;;9695653;30;20045;-84
2022/09/06 08:42:06;;;;;;;5.55;2.42;;;18.10;73.90;;;;;;9695263;30;20053;-86
2022/09/06 08:47:18;;;;;;;6.47;2.17;;;18.00;74.80;;;;;;9694832;30;20081;-84
2022/09/06 08:52:45;;;;;;;4.63;1.83;;;18.10;74.70;;;;;;9686472;30;20087;-85
2022/09/06 08:58:16;;;;;;;7.57;2.00;;;18.30;74.90;;;;;;9688020;30;20038;-85
2022/09/06 09:03:25;;;;;;;3.85;1.52;;;19.10;72.30;;;;;;9677511;30;20050;-84
2022/09/06 09:08:47;;;;;;;3.33;1.70;;;19.70;69.70;;;;;;9685318;30;20038;-84
2022/09/06 09:14:04;;;;;;;5.60;2.13;;;20.20;70.20;;;;;;9676631;30;20526;-86
2022/09/06 09:19:08;;;;;;;3.42;1.40;;;20.70;68.10;;;;;;9696276;30;20061;-85
2022/09/06 09:24:11;;;;;;;4.13;1.83;;;21.10;65.90;;;;;;9677310;30;20503;-85
2022/09/06 09:29:14;;;;;;;7.00;2.30;;;21.00;64.40;;;;;;9677850;30;20069;-84
2022/09/06 09:34:36;;;;;;;6.20;2.35;;;20.80;62.50;;;;;;9680242;30;20048;-85
2022/09/06 09:39:39;;;;;;;7.53;3.03;;;21.10;65.20;;;;;;9678067;30;20056;-85
2022/09/06 09:44:43;;;;;;;7.07;2.88;;;21.40;63.10;;;;;;9665366;30;20065;-84
2022/09/06 09:49:44;;;;;;;5.10;2.22;;;21.60;64.00;;;;;;9676282;30;20572;-84
2022/09/06 09:54:45;;;;;;;8.82;2.47;;;21.90;62.20;;;;;;9673915;30;20138;-85
2022/09/06 09:59:51;;;;;;;5.93;2.03;;;22.20;64.70;;;;;;9691684;30;20045;-85
2022/09/06 10:04:59;;;;;;;3.28;1.73;;;22.30;60.40;;;;;;9683143;30;20033;-85
2022/09/06 10:10:01;;;;;;;8.45;2.50;;;22.20;60.30;;;;;;9682244;30;20736;-85
2022/09/06 10:15:02;;;;;;;9.68;3.00;;;22.20;61.50;;;;;;9680066;30;20046;-83
2022/09/06 10:20:11;;;;;;;6.75;2.10;;;22.30;63.20;;;;;;9690717;30;20049;-85
2022/09/06 10:25:49;;;;;;;4.40;2.28;;;22.10;62.30;;;;;;9701103;30;20049;-84
2022/09/06 10:30:55;;;;;;;4.97;2.13;;;22.30;59.80;;;;;;9680600;30;20645;-86
2022/09/06 10:35:57;;;;;;;4.60;2.03;;;22.50;60.10;;;;;;9679905;30;20499;-85
2022/09/06 10:41:07;;;;;;;6.50;2.63;;;22.60;60.80;;;;;;9678639;30;20057;-84
2022/09/06 10:46:14;;;;;;;5.28;2.20;;;22.70;60.90;;;;;;9679203;30;20569;-86
2022/09/06 10:51:36;;;;;;;3.72;2.25;;;22.60;58.60;;;;;;9685015;30;20038;-83
2022/09/06 10:56:36;;;;;;;5.43;2.03;;;23.00;61.00;;;;;;9689868;30;20089;-87
2022/09/06 11:01:54;;;;;;;10.93;2.88;;;23.40;58.90;;;;;;9690515;30;20552;-86
2022/09/06 11:06:59;;;;;;;7.35;3.45;;;23.20;56.10;;;;;;9683620;30;20026;-87
2022/09/06 11:12:31;;;;;;;12.75;5.78;;;23.20;59.90;;;;;;9669937;30;20046;-86
2022/09/06 11:17:53;;;;;;;10.48;4.30;;;23.40;57.80;;;;;;9696728;30;20045;-88
2022/09/06 11:23:24;;;;;;;4.50;2.50;;;23.40;62.30;;;;;;9694690;30;20049;-85
2022/09/06 11:28:38;;;;;;;7.55;2.58;;;23.80;59.40;;;;;;9697933;30;20049;-84
2022/09/06 11:33:39;;;;;;;9.73;3.30;;;24.00;59.30;;;;;;9683073;30;20060;-85
2022/09/06 11:38:41;;;;;;;5.75;2.42;;;23.90;58.80;;;;;;9690613;30;20046;-86
2022/09/06 11:43:46;;;;;;;7.68;2.80;;;24.00;58.20;;;;;;9682060;30;20074;-84
2022/09/06 11:49:00;;;;;;;10.43;3.22;;;23.90;58.90;;;;;;9708875;30;20116;-84
2022/09/06 11:54:13;;;;;;;9.57;3.47;;;23.80;57.40;;;;;;9700276;30;20054;-87
2022/09/06 11:59:23;;;;;;;4.97;3.20;;;23.90;59.90;;;;;;9693358;30;20076;-84
2022/09/06 12:05:06;;;;;;;5.82;2.45;;;23.90;59.00;;;;;;9692240;30;20495;-84
2022/09/06 12:10:28;;;;;;;3.58;1.83;;;23.70;56.20;;;;;;9681765;30;20117;-86
2022/09/06 12:15:43;;;;;;;3.90;1.95;;;23.50;59.50;;;;;;9682722;30;20038;-85
2022/09/06 12:20:55;;;;;;;4.22;2.50;;;23.70;58.60;;;;;;9683688;30;20093;-84
2022/09/06 12:25:56;;;;;;;6.55;2.72;;;24.00;59.70;;;;;;9685265;30;20515;-86
2022/09/06 12:30:57;;;;;;;6.35;2.40;;;23.30;59.20;;;;;;9685002;30;20037;-86
2022/09/06 12:36:21;;;;;;;5.30;2.20;;;23.50;59.30;;;;;;9700771;30;20476;-85
2022/09/06 12:41:24;;;;;;;7.07;2.95;;;23.50;59.00;;;;;;9689595;30;20042;-85
2022/09/06 12:46:28;;;;;;;4.60;2.50;;;23.50;58.30;;;;;;9683990;30;20606;-86
2022/09/06 12:51:29;;;;;;;7.47;2.90;;;23.20;61.10;;;;;;9691238;30;20061;-84
2022/09/06 12:56:33;;;;;;;7.65;2.72;;;23.00;60.80;;;;;;9683545;30;20062;-84
2022/09/06 13:01:35;;;;;;;4.22;2.30;;;22.60;59.60;;;;;;9683386;30;20042;-83
2022/09/06 13:06:44;;;;;;;3.17;2.30;;;22.10;60.00;;;;;;9711331;30;20547;-86
2022/09/06 13:11:51;;;;;;;4.68;2.20;;;21.60;61.30;;;;;;9686838;30;20034;-83
2022/09/06 13:16:55;;;;;;;6.93;2.80;;;21.30;62.50;;;;;;9696142;30;20387;-86
2022/09/06 13:21:57;;;;;;;4.07;2.08;;;21.20;63.50;;;;;;9693701;30;20034;-84
2022/09/06 13:26:57;;;;;;;3.50;2.20;;;21.10;63.40;;;;;;9682711;30;20030;-86
2022/09/06 13:32:00;;;;;;;5.05;2.15;;;21.10;63.70;;;;;;9699037;30;20067;-86
2022/09/06 13:37:05;;;;;;;4.60;2.72;;;21.00;65.30;;;;;;9691419;30;20097;-84
2022/09/06 13:42:09;;;;;;;6.15;2.70;;;21.10;64.80;;;;;;9700104;30;20041;-84
2022/09/06 13:47:10;;;;;;;4.32;2.47;;;21.10;64.40;;;;;;9675369;30;20076;-83
2022/09/06 13:52:10;;;;;;;5.22;2.67;;;21.40;64.50;;;;;;9679329;30;20122;-83
2022/09/06 13:57:11;;;;;;;3.90;2.40;;;21.70;63.80;;;;;;9682975;30;20496;-84
2022/09/06 14:02:18;;;;;;;4.03;2.50;;;21.90;65.20;;;;;;9696290;30;20041;-83
2022/09/06 14:07:22;;;;;;;2.92;2.22;;;21.80;62.10;;;;;;9691388;30;20032;-82
2022/09/06 14:12:22;;;;;;;3.55;2.40;;;21.60;63.60;;;;;;9695122;30;20034;-83
2022/09/06 14:17:24;;;;;;;5.75;2.08;;;21.40;63.40;;;;;;9677641;30;20045;-83
2022/09/06 14:22:26;;;;;;;4.20;2.33;;;21.20;63.30;;;;;;9698603;30;21146;-84
2022/09/06 14:27:26;;;;;;;4.07;2.13;;;21.40;63.60;;;;;;9691510;30;20034;-83
2022/09/06 14:32:27;;;;;;;4.18;1.92;;;21.40;61.90;;;;;;9665589;30;20033;-82
2022/09/06 14:37:27;;;;;;;3.15;2.25;;;21.30;63.50;;;;;;9691107;30;20439;-83
2022/09/06 14:42:28;;;;;;;3.05;2.53;;;21.40;65.50;;;;;;9690866;30;20054;-83
2022/09/06 14:47:29;;;;;;;2.63;1.70;;;21.60;64.60;;;;;;9687431;30;20117;-82
2022/09/06 14:52:30;;;;;;;6.38;2.72;;;21.40;63.80;;;;;;9680024;30;20050;-82
2022/09/06 14:57:31;;;;;;;3.63;2.15;;;21.20;63.00;;;;;;9687587;30;20037;-82
2022/09/06 15:02:33;;;;;;;4.25;2.30;;;21.00;63.50;;;;;;9688787;30;20046;-85
2022/09/06 15:07:34;;;;;;;5.88;2.42;;;21.00;63.90;;;;;;9693254;30;20045;-85
2022/09/06 15:12:34;;;;;;;3.40;2.05;;;21.10;63.90;;;;;;9667276;30;20499;-85
2022/09/06 15:17:35;;;;;;;3.67;2.17;;;21.10;63.00;;;;;;9693335;30;20064;-85
2022/09/06 15:22:36;;;;;;;2.67;2.08;;;21.00;65.20;;;;;;9694037;30;20570;-82
2022/09/06 15:27:36;;;;;;;3.70;2.13;;;20.80;64.30;;;;;;9695643;30;20038;-83
2022/09/06 15:32:37;;;;;;;4.03;2.08;;;20.60;64.70;;;;;;9686600;30;20041;-85
2022/09/06 15:37:37;;;;;;;5.05;1.92;;;20.30;65.70;;;;;;9690883;30;20034;-85
2022/09/06 15:42:38;;;;;;;5.40;2.40;;;20.00;65.40;;;;;;9699681;30;20050;-83
2022/09/06 15:47:39;;;;;;;5.65;2.45;;;19.90;66.10;;;;;;9688262;30;20045;-84
2022/09/06 15:52:39;;;;;;;5.43;2.55;;;19.70;67.50;;;;;;9694333;30;20840;-83
2022/09/06 15:57:40;;;;;;;5.53;2.60;;;19.70;68.10;;;;;;9689044;30;20034;-83
2022/09/06 16:02:41;;;;;;;5.13;2.85;;;19.60;69.20;;;;;;9698695;30;20054;-84
2022/09/06 16:07:43;;;;;;;5.78;3.13;;;19.50;71.80;;;;;;9684230;30;20041;-84
2022/09/06 16:12:43;;;;;;;6.25;3.15;;;19.40;73.40;;;;;;9694653;30;20050;-84
2022/09/06 16:17:44;;;;;;;7.38;4.15;;;19.20;75.40;;;;;;9692153;30;20056;-84
2022/09/06 16:22:48;;;;;;;9.73;3.97;;;19.00;76.60;;;;;;9692613;30;20050;-83
2022/09/06 16:27:48;;;;;;;8.98;3.53;;;18.80;78.30;;;;;;9690699;30;20042;-82
2022/09/06 16:32:49;;;;;;;12.13;4.38;;;18.60;78.10;;;;;;9691851;30;20041;-84
2022/09/06 16:37:49;;;;;;;6.45;3.38;;;18.40;79.00;;;;;;9684849;30;20040;-85
2022/09/06 16:42:53;;;;;;;8.50;3.47;;;18.10;80.10;;;;;;9685525;30;20116;-84
2022/09/06 16:47:53;;;;;;;5.70;3.15;;;17.90;77.90;;;;;;9696244;30;20128;-85
2022/09/06 16:52:54;;;;;;;7.93;3.50;;;17.80;78.80;;;;;;9689925;30;20068;-84
2022/09/06 16:57:55;;;;;;;7.75;3.33;;;17.70;78.70;;;;;;9687349;30;20145;-82
2022/09/06 17:02:55;;;;;;;6.50;3.25;;;17.50;79.30;;;;;;9685952;30;20064;-85
2022/09/06 17:07:56;;;;;;;6.00;3.55;;;17.30;79.90;;;;;;9682079;30;20058;-87
2022/09/06 17:12:57;;;;;;;7.43;3.45;;;17.00;82.00;;;;;;9693577;30;20036;-85
2022/09/06 17:17:57;;;;;;;7.78;3.65;;;16.60;83.60;;;;;;9682421;30;20034;-87
2022/09/06 17:22:58;;;;;;;8.13;3.90;;;16.20;84.70;;;;;;9676497;30;20061;-85
2022/09/06 17:27:58;;;;;;;10.80;4.90;;;15.90;86.50;;;;;;9679388;30;20136;-83
2022/09/06 17:32:59;;;;;;;16.17;7.95;;;15.70;86.40;;;;;;9695348;30;20056;-83
2022/09/06 17:37:59;;;;;;;21.45;10.57;;;15.80;86.70;;;;;;9686784;30;20106;-83
2022/09/06 17:43:00;;;;;;;24.42;12.38;;;15.80;86.80;;;;;;9679338;30;20045;-83
2022/09/06 17:48:01;;;;;;;27.30;13.90;;;15.70;85.90;;;;;;9683915;30;20187;-83
2022/09/06 17:53:01;;;;;;;20.92;10.63;;;15.70;86.70;;;;;;9680643;30;20062;-85
2022/09/06 17:58:02;;;;;;;21.33;10.70;;;15.60;86.40;;;;;;9688785;30;20037;-84
2022/09/06 18:03:02;;;;;;;27.48;14.82;;;15.50;86.00;;;;;;9662935;30;20050;-86
2022/09/06 18:08:03;;;;;;;30.00;16.20;;;15.50;86.90;;;;;;9679563;30;20038;-86
2022/09/06 18:13:04;;;;;;;34.67;16.98;;;15.40;86.60;;;;;;9687983;30;20038;-85
2022/09/06 18:18:05;;;;;;;30.65;15.45;;;15.30;86.90;;;;;;9677658;30;20040;-86
2022/09/06 18:23:06;;;;;;;30.70;14.45;;;15.30;86.70;;;;;;9677024;30;20396;-86
2022/09/06 18:28:07;;;;;;;32.03;15.48;;;15.30;86.90;;;;;;9683467;30;20042;-86
2022/09/06 18:33:10;;;;;;;25.10;13.27;;;15.20;87.20;;;;;;9685110;30;20117;-84
2022/09/06 18:38:11;;;;;;;31.40;15.02;;;15.10;87.00;;;;;;9675441;30;20042;-86
2022/09/06 18:43:12;;;;;;;32.33;16.95;;;15.00;87.20;;;;;;9664706;30;20466;-84
2022/09/06 18:48:14;;;;;;;35.72;17.67;;;15.00;87.40;;;;;;9685390;30;20097;-83
2022/09/06 18:53:17;;;;;;;33.50;16.98;;;14.90;88.10;;;;;;9683129;30;20068;-82
2022/09/06 18:58:17;;;;;;;26.98;14.23;;;14.70;89.00;;;;;;9690046;30;20038;-84
2022/09/06 19:03:18;;;;;;;21.15;12.10;;;14.50;89.50;;;;;;9689496;30;20171;-81
2022/09/06 19:08:19;;;;;;;18.50;9.48;;;14.40;90.10;;;;;;9694603;30;20041;-84
2022/09/06 19:13:22;;;;;;;19.05;8.88;;;14.20;89.90;;;;;;9677392;30;20042;-83
2022/09/06 19:18:27;;;;;;;18.52;7.57;;;14.30;90.00;;;;;;9677098;30;20125;-86
2022/09/06 19:23:28;;;;;;;12.57;6.18;;;14.20;89.60;;;;;;9665715;30;20081;-83
2022/09/06 19:28:30;;;;;;;13.35;5.78;;;14.20;89.90;;;;;;9677647;30;20042;-84
2022/09/06 19:33:32;;;;;;;9.60;4.97;;;14.20;88.40;;;;;;9683552;30;20041;-83
2022/09/06 19:38:33;;;;;;;11.00;4.53;;;14.20;88.10;;;;;;9687627;30;20041;-86
2022/09/06 19:43:35;;;;;;;9.35;3.85;;;14.20;87.20;;;;;;9689547;30;20076;-85
2022/09/06 19:48:37;;;;;;;9.70;4.00;;;14.30;86.80;;;;;;9683870;30;20037;-84
2022/09/06 19:53:39;;;;;;;7.25;3.63;;;14.30;86.50;;;;;;9692671;30;20050;-83
2022/09/06 19:58:41;;;;;;;8.25;3.83;;;14.30;86.10;;;;;;9687099;30;20033;-84
2022/09/06 20:03:43;;;;;;;8.15;3.42;;;14.30;86.00;;;;;;9690406;30;20042;-85
2022/09/06 20:08:49;;;;;;;5.82;3.13;;;14.20;85.00;;;;;;9690604;30;20077;-84
2022/09/06 20:13:50;;;;;;;7.38;2.97;;;14.20;85.30;;;;;;9682176;30;20131;-85
2022/09/06 20:18:53;;;;;;;7.28;3.17;;;14.20;84.70;;;;;;9690870;30;20046;-82
2022/09/06 20:29:28;;;;;;;6.63;2.92;;;14.20;84.50;;;;;;10436392;28;20774;-83
2022/09/06 20:34:29;;;;;;;5.40;2.85;;;14.10;83.90;;;;;;10395979;28;20030;-82
2022/09/06 20:39:30;;;;;;;9.52;3.00;;;14.20;83.70;;;;;;10416914;28;20029;-83
2022/09/06 20:44:30;;;;;;;5.53;2.75;;;14.10;83.90;;;;;;10397279;28;20045;-81
2022/09/06 20:49:31;;;;;;;6.20;2.83;;;14.10;83.60;;;;;;10397128;28;20017;-83
2022/09/06 20:54:31;;;;;;;4.03;2.33;;;14.10;83.20;;;;;;10395900;28;20164;-81
2022/09/06 20:59:32;;;;;;;5.53;2.60;;;14.10;82.60;;;;;;10391491;28;20374;-83
2022/09/06 21:04:33;;;;;;;4.30;2.33;;;14.10;82.10;;;;;;10390646;28;20022;-85
2022/09/06 21:09:34;;;;;;;5.82;2.47;;;14.10;82.40;;;;;;10395132;28;20040;-84
2022/09/06 21:14:35;;;;;;;6.68;2.70;;;14.10;82.00;;;;;;10408321;28;20030;-84
2022/09/06 21:19:38;;;;;;;4.45;2.25;;;14.00;81.90;;;;;;10393546;28;20033;-82
2022/09/06 21:24:38;;;;;;;6.72;2.45;;;14.00;81.50;;;;;;10396358;28;20026;-81
2022/09/06 21:29:39;;;;;;;3.60;2.08;;;14.00;80.90;;;;;;10395492;28;20037;-82
2022/09/06 21:34:39;;;;;;;5.57;2.30;;;14.00;81.30;;;;;;10389058;28;20111;-83
2022/09/06 21:39:40;;;;;;;5.30;2.30;;;14.00;80.60;;;;;;10366991;28;20026;-83
2022/09/06 21:44:41;;;;;;;3.88;2.10;;;14.00;81.10;;;;;;10363099;28;20097;-83
2022/09/06 21:49:41;;;;;;;3.85;2.53;;;13.90;79.60;;;;;;10364970;28;20042;-83
2022/09/06 21:54:42;;;;;;;2.95;2.15;;;13.90;79.90;;;;;;10364983;28;20038;-82
2022/09/06 21:59:42;;;;;;;4.10;1.95;;;13.80;79.50;;;;;;10363554;28;20032;-82
2022/09/06 22:04:43;;;;;;;6.57;2.40;;;13.80;78.80;;;;;;10363000;28;20034;-82
2022/09/06 22:09:44;;;;;;;3.75;2.28;;;13.70;78.40;;;;;;10366841;28;20412;-84
2022/09/06 22:14:46;;;;;;;5.65;2.40;;;13.70;78.30;;;;;;10366218;28;20026;-83
2022/09/06 22:19:46;;;;;;;5.45;1.70;;;13.70;77.80;;;;;;10363553;28;20030;-83
2022/09/06 22:24:47;;;;;;;5.95;1.60;;;13.60;77.50;;;;;;10364893;28;20053;-83
2022/09/06 22:29:48;;;;;;;2.55;1.52;;;13.60;78.20;;;;;;10364240;28;20034;-82
2022/09/06 22:34:49;;;;;;;3.38;1.50;;;13.50;77.20;;;;;;10363776;28;20072;-83
2022/09/06 22:39:49;;;;;;;3.25;1.48;;;13.50;77.60;;;;;;10363686;28;20555;-82
2022/09/06 22:44:50;;;;;;;2.38;1.30;;;13.40;78.20;;;;;;10365331;28;20104;-82
2022/09/06 22:49:51;;;;;;;2.67;1.63;;;13.40;76.70;;;;;;10362443;28;20061;-82
2022/09/06 22:54:51;;;;;;;2.78;1.55;;;13.30;76.20;;;;;;10364803;28;20037;-83
2022/09/06 22:59:52;;;;;;;3.33;1.35;;;13.20;76.30;;;;;;10363756;28;20500;-83
2022/09/06 23:04:54;;;;;;;4.28;1.50;;;13.10;76.50;;;;;;10360100;28;20472;-83
2022/09/06 23:09:55;;;;;;;7.00;2.15;;;13.10;76.10;;;;;;10362839;28;20030;-83
2022/09/06 23:14:55;;;;;;;8.25;2.22;;;13.10;76.40;;;;;;10364364;28;20412;-83
2022/09/06 23:19:56;;;;;;;3.28;1.70;;;13.00;75.80;;;;;;10359500;28;20041;-83
2022/09/06 23:24:57;;;;;;;5.78;1.70;;;13.00;76.70;;;;;;10363226;28;20408;-83
2022/09/06 23:29:57;;;;;;;3.17;1.90;;;13.10;75.40;;;;;;10363528;28;20026;-82
2022/09/06 23:34:58;;;;;;;3.75;2.05;;;13.20;76.10;;;;;;10360736;28;20697;-85
2022/09/06 23:39:59;;;;;;;4.57;2.28;;;13.20;76.00;;;;;;10360681;28;20145;-83
2022/09/06 23:44:59;;;;;;;3.20;1.63;;;13.20;75.50;;;;;;10363966;28;20564;-83
2022/09/06 23:50:00;;;;;;;3.33;1.65;;;13.20;75.60;;;;;;10360637;28;20042;-83
2022/09/06 23:55:02;;;;;;;8.10;2.00;;;13.20;76.40;;;;;;10361384;28;20065;-83
